sensor_id;sensor_type;location;lat;lon;timestamp;P1;durP1;ratioP1;P2;durP2;ratioP2
59978;SDS011;45839;44.882;20.650;2023-07-31T00:00:55;7.30;;;4.88;;
59978;SDS011;45839;44.882;20.650;2023-07-31T00:03:21;10.57;;;5.43;;
59978;SDS011;45839;44.882;20.650;2023-07-31T00:05:47;7.25;;;5.05;;
59978;SDS011;45839;44.882;20.650;2023-07-31T00:08:13;6.95;;;4.90;;
59978;SDS011;45839;44.882;20.650;2023-07-31T00:10:39;10.25;;;5.60;;
59978;SDS011;45839;44.882;20.650;2023-07-31T00:13:05;8.30;;;5.07;;
59978;SDS011;45839;44.882;20.650;2023-07-31T00:15:31;7.25;;;5.45;;
59978;SDS011;45839;44.882;20.650;2023-07-31T00:17:57;7.65;;;5.28;;
59978;SDS011;45839;44.882;20.650;2023-07-31T00:20:24;6.80;;;5.20;;
59978;SDS011;45839;44.882;20.650;2023-07-31T00:22:50;7.88;;;5.22;;
59978;SDS011;45839;44.882;20.650;2023-07-31T00:25:16;7.65;;;5.28;;
59978;SDS011;45839;44.882;20.650;2023-07-31T00:27:42;8.30;;;5.15;;
59978;SDS011;45839;44.882;20.650;2023-07-31T00:30:09;9.18;;;5.45;;
59978;SDS011;45839;44.882;20.650;2023-07-31T00:32:36;7.80;;;5.85;;
59978;SDS011;45839;44.882;20.650;2023-07-31T00:35:02;7.53;;;4.90;;
59978;SDS011;45839;44.882;20.650;2023-07-31T00:37:28;7.40;;;5.50;;
59978;SDS011;45839;44.882;20.650;2023-07-31T00:39:54;7.95;;;5.68;;
59978;SDS011;45839;44.882;20.650;2023-07-31T00:42:20;8.75;;;5.80;;
59978;SDS011;45839;44.882;20.650;2023-07-31T00:44:46;7.57;;;4.97;;
59978;SDS011;45839;44.882;20.650;2023-07-31T00:47:12;8.50;;;5.47;;
59978;SDS011;45839;44.882;20.650;2023-07-31T00:49:39;8.20;;;5.35;;
59978;SDS011;45839;44.882;20.650;2023-07-31T00:52:05;8.73;;;5.68;;
59978;SDS011;45839;44.882;20.650;2023-07-31T00:54:32;8.32;;;5.32;;
59978;SDS011;45839;44.882;20.650;2023-07-31T00:56:58;7.85;;;5.35;;
59978;SDS011;45839;44.882;20.650;2023-07-31T00:59:25;7.97;;;5.05;;
59978;SDS011;45839;44.882;20.650;2023-07-31T01:01:51;6.70;;;4.78;;
59978;SDS011;45839;44.882;20.650;2023-07-31T01:04:17;7.00;;;4.50;;
59978;SDS011;45839;44.882;20.650;2023-07-31T01:06:59;8.35;;;4.80;;
59978;SDS011;45839;44.882;20.650;2023-07-31T01:09:50;8.63;;;4.90;;
59978;SDS011;45839;44.882;20.650;2023-07-31T01:12:14;8.07;;;5.18;;
59978;SDS011;45839;44.882;20.650;2023-07-31T01:14:50;7.10;;;5.05;;
59978;SDS011;45839;44.882;20.650;2023-07-31T01:17:16;7.00;;;4.80;;
59978;SDS011;45839;44.882;20.650;2023-07-31T01:19:43;7.40;;;4.55;;
59978;SDS011;45839;44.882;20.650;2023-07-31T01:27:28;9.63;;;4.70;;
59978;SDS011;45839;44.882;20.650;2023-07-31T01:30:15;6.47;;;5.00;;
59978;SDS011;45839;44.882;20.650;2023-07-31T01:32:42;7.22;;;4.65;;
59978;SDS011;45839;44.882;20.650;2023-07-31T01:35:09;7.95;;;4.28;;
59978;SDS011;45839;44.882;20.650;2023-07-31T01:37:35;6.70;;;4.60;;
59978;SDS011;45839;44.882;20.650;2023-07-31T01:40:03;7.63;;;4.78;;
59978;SDS011;45839;44.882;20.650;2023-07-31T01:42:29;7.18;;;4.43;;
59978;SDS011;45839;44.882;20.650;2023-07-31T01:44:55;6.43;;;4.40;;
59978;SDS011;45839;44.882;20.650;2023-07-31T01:47:21;6.75;;;4.32;;
59978;SDS011;45839;44.882;20.650;2023-07-31T01:49:48;6.78;;;4.75;;
59978;SDS011;45839;44.882;20.650;2023-07-31T01:52:14;6.93;;;4.82;;
59978;SDS011;45839;44.882;20.650;2023-07-31T01:54:40;7.35;;;4.40;;
59978;SDS011;45839;44.882;20.650;2023-07-31T01:57:06;7.22;;;4.68;;
59978;SDS011;45839;44.882;20.650;2023-07-31T01:59:32;6.40;;;4.47;;
59978;SDS011;45839;44.882;20.650;2023-07-31T02:01:58;9.05;;;4.78;;
59978;SDS011;45839;44.882;20.650;2023-07-31T02:04:24;7.93;;;4.20;;
59978;SDS011;45839;44.882;20.650;2023-07-31T02:06:50;7.55;;;4.35;;
59978;SDS011;45839;44.882;20.650;2023-07-31T02:09:16;6.53;;;4.53;;
59978;SDS011;45839;44.882;20.650;2023-07-31T02:11:42;7.88;;;4.38;;
59978;SDS011;45839;44.882;20.650;2023-07-31T02:14:08;6.95;;;4.50;;
59978;SDS011;45839;44.882;20.650;2023-07-31T02:16:34;8.40;;;4.60;;
59978;SDS011;45839;44.882;20.650;2023-07-31T02:19:01;5.78;;;4.10;;
59978;SDS011;45839;44.882;20.650;2023-07-31T02:21:27;7.22;;;4.53;;
59978;SDS011;45839;44.882;20.650;2023-07-31T02:23:53;7.57;;;3.88;;
59978;SDS011;45839;44.882;20.650;2023-07-31T02:26:19;6.70;;;4.05;;
59978;SDS011;45839;44.882;20.650;2023-07-31T02:28:45;7.38;;;4.55;;
59978;SDS011;45839;44.882;20.650;2023-07-31T02:31:11;10.13;;;4.50;;
59978;SDS011;45839;44.882;20.650;2023-07-31T02:33:37;8.57;;;3.75;;
59978;SDS011;45839;44.882;20.650;2023-07-31T02:36:03;6.13;;;4.10;;
59978;SDS011;45839;44.882;20.650;2023-07-31T02:38:29;8.13;;;4.80;;
59978;SDS011;45839;44.882;20.650;2023-07-31T02:40:55;8.32;;;4.53;;
59978;SDS011;45839;44.882;20.650;2023-07-31T02:43:21;7.15;;;4.70;;
59978;SDS011;45839;44.882;20.650;2023-07-31T02:45:51;7.10;;;4.50;;
59978;SDS011;45839;44.882;20.650;2023-07-31T02:48:17;7.60;;;4.40;;
59978;SDS011;45839;44.882;20.650;2023-07-31T02:50:43;6.28;;;4.50;;
59978;SDS011;45839;44.882;20.650;2023-07-31T02:53:09;8.48;;;4.45;;
59978;SDS011;45839;44.882;20.650;2023-07-31T02:55:35;7.10;;;4.03;;
59978;SDS011;45839;44.882;20.650;2023-07-31T02:58:01;6.18;;;4.22;;
59978;SDS011;45839;44.882;20.650;2023-07-31T03:00:27;7.35;;;4.07;;
59978;SDS011;45839;44.882;20.650;2023-07-31T03:02:54;7.35;;;4.30;;
59978;SDS011;45839;44.882;20.650;2023-07-31T03:05:20;6.30;;;3.75;;
59978;SDS011;45839;44.882;20.650;2023-07-31T03:07:46;6.15;;;3.70;;
59978;SDS011;45839;44.882;20.650;2023-07-31T03:10:12;6.05;;;3.78;;
59978;SDS011;45839;44.882;20.650;2023-07-31T03:12:39;7.43;;;3.50;;
59978;SDS011;45839;44.882;20.650;2023-07-31T03:15:05;6.75;;;4.18;;
59978;SDS011;45839;44.882;20.650;2023-07-31T03:17:32;7.47;;;4.40;;
59978;SDS011;45839;44.882;20.650;2023-07-31T03:19:58;6.43;;;3.97;;
59978;SDS011;45839;44.882;20.650;2023-07-31T03:22:24;7.30;;;3.30;;
59978;SDS011;45839;44.882;20.650;2023-07-31T03:24:50;6.15;;;4.00;;
59978;SDS011;45839;44.882;20.650;2023-07-31T03:27:16;6.35;;;4.13;;
59978;SDS011;45839;44.882;20.650;2023-07-31T03:29:42;9.30;;;4.57;;
59978;SDS011;45839;44.882;20.650;2023-07-31T03:32:08;6.25;;;4.13;;
59978;SDS011;45839;44.882;20.650;2023-07-31T03:34:34;10.23;;;4.35;;
59978;SDS011;45839;44.882;20.650;2023-07-31T03:37:00;6.10;;;4.20;;
59978;SDS011;45839;44.882;20.650;2023-07-31T03:39:26;6.38;;;4.22;;
59978;SDS011;45839;44.882;20.650;2023-07-31T03:41:52;7.57;;;4.65;;
59978;SDS011;45839;44.882;20.650;2023-07-31T03:44:18;6.43;;;3.97;;
59978;SDS011;45839;44.882;20.650;2023-07-31T03:46:44;5.97;;;4.30;;
59978;SDS011;45839;44.882;20.650;2023-07-31T03:49:10;7.47;;;4.80;;
59978;SDS011;45839;44.882;20.650;2023-07-31T03:51:36;6.97;;;4.75;;
59978;SDS011;45839;44.882;20.650;2023-07-31T03:54:02;6.57;;;4.80;;
59978;SDS011;45839;44.882;20.650;2023-07-31T03:56:28;7.50;;;5.38;;
59978;SDS011;45839;44.882;20.650;2023-07-31T03:58:54;9.00;;;5.20;;
59978;SDS011;45839;44.882;20.650;2023-07-31T04:01:20;7.43;;;5.10;;
59978;SDS011;45839;44.882;20.650;2023-07-31T04:03:46;7.10;;;4.30;;
59978;SDS011;45839;44.882;20.650;2023-07-31T04:06:12;6.75;;;4.15;;
59978;SDS011;45839;44.882;20.650;2023-07-31T04:08:38;6.82;;;5.05;;
59978;SDS011;45839;44.882;20.650;2023-07-31T04:11:04;7.63;;;5.00;;
59978;SDS011;45839;44.882;20.650;2023-07-31T04:13:30;10.27;;;7.88;;
59978;SDS011;45839;44.882;20.650;2023-07-31T04:15:57;11.25;;;9.85;;
59978;SDS011;45839;44.882;20.650;2023-07-31T04:18:24;10.60;;;7.25;;
59978;SDS011;45839;44.882;20.650;2023-07-31T04:20:50;9.82;;;6.95;;
59978;SDS011;45839;44.882;20.650;2023-07-31T04:23:16;10.73;;;7.97;;
59978;SDS011;45839;44.882;20.650;2023-07-31T04:25:42;18.38;;;13.60;;
59978;SDS011;45839;44.882;20.650;2023-07-31T04:28:08;12.77;;;9.27;;
59978;SDS011;45839;44.882;20.650;2023-07-31T04:30:34;12.80;;;9.70;;
59978;SDS011;45839;44.882;20.650;2023-07-31T04:33:01;9.23;;;6.63;;
59978;SDS011;45839;44.882;20.650;2023-07-31T04:35:27;9.60;;;6.32;;
59978;SDS011;45839;44.882;20.650;2023-07-31T04:37:53;15.00;;;11.20;;
59978;SDS011;45839;44.882;20.650;2023-07-31T04:40:19;9.45;;;6.57;;
59978;SDS011;45839;44.882;20.650;2023-07-31T04:42:45;15.13;;;11.88;;
59978;SDS011;45839;44.882;20.650;2023-07-31T04:45:11;9.52;;;6.82;;
59978;SDS011;45839;44.882;20.650;2023-07-31T04:47:37;9.40;;;6.55;;
59978;SDS011;45839;44.882;20.650;2023-07-31T04:50:03;10.85;;;6.63;;
59978;SDS011;45839;44.882;20.650;2023-07-31T04:52:30;8.38;;;6.30;;
59978;SDS011;45839;44.882;20.650;2023-07-31T04:54:56;9.98;;;5.80;;
59978;SDS011;45839;44.882;20.650;2023-07-31T04:57:22;8.32;;;5.75;;
59978;SDS011;45839;44.882;20.650;2023-07-31T04:59:48;8.25;;;5.97;;
59978;SDS011;45839;44.882;20.650;2023-07-31T05:02:14;8.10;;;5.78;;
59978;SDS011;45839;44.882;20.650;2023-07-31T05:04:40;7.43;;;5.38;;
59978;SDS011;45839;44.882;20.650;2023-07-31T05:07:06;8.05;;;4.95;;
59978;SDS011;45839;44.882;20.650;2023-07-31T05:09:32;9.10;;;7.03;;
59978;SDS011;45839;44.882;20.650;2023-07-31T05:11:58;7.68;;;5.50;;
59978;SDS011;45839;44.882;20.650;2023-07-31T05:14:25;8.45;;;5.13;;
59978;SDS011;45839;44.882;20.650;2023-07-31T05:16:51;9.60;;;6.00;;
59978;SDS011;45839;44.882;20.650;2023-07-31T05:19:17;7.53;;;5.18;;
59978;SDS011;45839;44.882;20.650;2023-07-31T05:21:43;6.78;;;4.72;;
59978;SDS011;45839;44.882;20.650;2023-07-31T05:24:09;6.78;;;4.63;;
59978;SDS011;45839;44.882;20.650;2023-07-31T05:26:36;6.40;;;4.80;;
59978;SDS011;45839;44.882;20.650;2023-07-31T05:29:03;7.35;;;4.50;;
59978;SDS011;45839;44.882;20.650;2023-07-31T05:31:29;6.40;;;4.40;;
59978;SDS011;45839;44.882;20.650;2023-07-31T05:33:57;6.95;;;4.00;;
59978;SDS011;45839;44.882;20.650;2023-07-31T05:36:23;5.97;;;3.95;;
59978;SDS011;45839;44.882;20.650;2023-07-31T05:38:49;7.30;;;4.18;;
59978;SDS011;45839;44.882;20.650;2023-07-31T05:41:15;6.20;;;3.78;;
59978;SDS011;45839;44.882;20.650;2023-07-31T05:43:41;7.18;;;4.22;;
59978;SDS011;45839;44.882;20.650;2023-07-31T05:46:08;6.57;;;4.18;;
59978;SDS011;45839;44.882;20.650;2023-07-31T05:48:34;6.03;;;3.90;;
59978;SDS011;45839;44.882;20.650;2023-07-31T05:51:00;6.35;;;4.28;;
59978;SDS011;45839;44.882;20.650;2023-07-31T05:53:27;6.53;;;4.32;;
59978;SDS011;45839;44.882;20.650;2023-07-31T05:55:53;7.97;;;4.22;;
59978;SDS011;45839;44.882;20.650;2023-07-31T05:58:19;7.20;;;4.57;;
59978;SDS011;45839;44.882;20.650;2023-07-31T06:00:45;5.88;;;4.00;;
59978;SDS011;45839;44.882;20.650;2023-07-31T06:03:11;11.93;;;8.68;;
59978;SDS011;45839;44.882;20.650;2023-07-31T06:05:37;14.10;;;11.18;;
59978;SDS011;45839;44.882;20.650;2023-07-31T06:08:03;7.32;;;4.38;;
59978;SDS011;45839;44.882;20.650;2023-07-31T06:10:29;6.72;;;4.78;;
59978;SDS011;45839;44.882;20.650;2023-07-31T06:12:55;7.85;;;5.07;;
59978;SDS011;45839;44.882;20.650;2023-07-31T06:15:22;6.65;;;4.28;;
59978;SDS011;45839;44.882;20.650;2023-07-31T06:17:48;6.80;;;4.70;;
59978;SDS011;45839;44.882;20.650;2023-07-31T06:20:14;6.82;;;4.40;;
59978;SDS011;45839;44.882;20.650;2023-07-31T06:22:40;6.50;;;3.88;;
59978;SDS011;45839;44.882;20.650;2023-07-31T06:25:06;6.20;;;4.35;;
59978;SDS011;45839;44.882;20.650;2023-07-31T06:27:32;6.70;;;4.38;;
59978;SDS011;45839;44.882;20.650;2023-07-31T06:29:58;8.13;;;5.18;;
59978;SDS011;45839;44.882;20.650;2023-07-31T06:32:25;6.70;;;4.32;;
59978;SDS011;45839;44.882;20.650;2023-07-31T06:34:51;5.53;;;3.85;;
59978;SDS011;45839;44.882;20.650;2023-07-31T06:37:17;5.93;;;4.18;;
59978;SDS011;45839;44.882;20.650;2023-07-31T06:39:43;6.65;;;4.05;;
59978;SDS011;45839;44.882;20.650;2023-07-31T06:42:09;7.13;;;4.65;;
59978;SDS011;45839;44.882;20.650;2023-07-31T06:44:35;6.63;;;4.57;;
59978;SDS011;45839;44.882;20.650;2023-07-31T06:47:01;6.88;;;3.85;;
59978;SDS011;45839;44.882;20.650;2023-07-31T06:49:27;5.35;;;3.67;;
59978;SDS011;45839;44.882;20.650;2023-07-31T06:51:53;6.45;;;3.78;;
59978;SDS011;45839;44.882;20.650;2023-07-31T06:54:19;6.72;;;4.18;;
59978;SDS011;45839;44.882;20.650;2023-07-31T06:56:45;6.40;;;3.88;;
59978;SDS011;45839;44.882;20.650;2023-07-31T06:59:11;5.78;;;3.50;;
59978;SDS011;45839;44.882;20.650;2023-07-31T07:01:37;9.88;;;5.47;;
59978;SDS011;45839;44.882;20.650;2023-07-31T07:04:03;8.82;;;5.82;;
59978;SDS011;45839;44.882;20.650;2023-07-31T07:06:29;5.47;;;3.67;;
59978;SDS011;45839;44.882;20.650;2023-07-31T07:08:55;6.93;;;4.30;;
59978;SDS011;45839;44.882;20.650;2023-07-31T07:11:21;7.07;;;3.90;;
59978;SDS011;45839;44.882;20.650;2023-07-31T07:13:47;5.20;;;3.20;;
59978;SDS011;45839;44.882;20.650;2023-07-31T07:16:14;6.32;;;4.07;;
59978;SDS011;45839;44.882;20.650;2023-07-31T07:18:40;7.03;;;5.03;;
59978;SDS011;45839;44.882;20.650;2023-07-31T07:21:06;6.80;;;4.60;;
59978;SDS011;45839;44.882;20.650;2023-07-31T07:23:33;6.50;;;4.53;;
59978;SDS011;45839;44.882;20.650;2023-07-31T07:25:59;7.22;;;3.88;;
59978;SDS011;45839;44.882;20.650;2023-07-31T07:28:25;6.68;;;3.58;;
59978;SDS011;45839;44.882;20.650;2023-07-31T07:30:53;6.70;;;4.28;;
59978;SDS011;45839;44.882;20.650;2023-07-31T07:33:19;11.23;;;6.75;;
59978;SDS011;45839;44.882;20.650;2023-07-31T07:35:45;7.93;;;2.90;;
59978;SDS011;45839;44.882;20.650;2023-07-31T07:38:13;6.07;;;2.83;;
59978;SDS011;45839;44.882;20.650;2023-07-31T07:40:40;5.78;;;2.90;;
59978;SDS011;45839;44.882;20.650;2023-07-31T07:43:06;10.85;;;5.60;;
59978;SDS011;45839;44.882;20.650;2023-07-31T07:45:32;4.93;;;2.50;;
59978;SDS011;45839;44.882;20.650;2023-07-31T07:47:58;4.30;;;2.38;;
59978;SDS011;45839;44.882;20.650;2023-07-31T07:50:24;4.47;;;2.40;;
59978;SDS011;45839;44.882;20.650;2023-07-31T07:52:50;7.53;;;4.93;;
59978;SDS011;45839;44.882;20.650;2023-07-31T07:55:16;8.93;;;6.90;;
59978;SDS011;45839;44.882;20.650;2023-07-31T07:57:42;5.38;;;3.00;;
59978;SDS011;45839;44.882;20.650;2023-07-31T08:00:10;9.20;;;5.20;;
59978;SDS011;45839;44.882;20.650;2023-07-31T08:02:36;4.80;;;2.67;;
59978;SDS011;45839;44.882;20.650;2023-07-31T08:05:02;8.15;;;5.47;;
59978;SDS011;45839;44.882;20.650;2023-07-31T08:07:28;5.82;;;3.67;;
59978;SDS011;45839;44.882;20.650;2023-07-31T08:09:54;6.60;;;4.10;;
59978;SDS011;45839;44.882;20.650;2023-07-31T08:12:20;6.30;;;3.17;;
59978;SDS011;45839;44.882;20.650;2023-07-31T08:14:46;4.53;;;2.58;;
59978;SDS011;45839;44.882;20.650;2023-07-31T08:17:12;7.10;;;2.90;;
59978;SDS011;45839;44.882;20.650;2023-07-31T08:19:38;4.88;;;2.67;;
59978;SDS011;45839;44.882;20.650;2023-07-31T08:22:04;6.70;;;4.13;;
59978;SDS011;45839;44.882;20.650;2023-07-31T08:24:31;11.18;;;8.63;;
59978;SDS011;45839;44.882;20.650;2023-07-31T08:26:57;8.52;;;4.55;;
59978;SDS011;45839;44.882;20.650;2023-07-31T08:29:23;5.72;;;3.20;;
59978;SDS011;45839;44.882;20.650;2023-07-31T08:31:49;4.55;;;2.83;;
59978;SDS011;45839;44.882;20.650;2023-07-31T08:34:15;5.82;;;2.78;;
59978;SDS011;45839;44.882;20.650;2023-07-31T08:36:41;5.18;;;2.85;;
59978;SDS011;45839;44.882;20.650;2023-07-31T08:39:07;5.53;;;3.17;;
59978;SDS011;45839;44.882;20.650;2023-07-31T08:41:39;4.40;;;2.50;;
59978;SDS011;45839;44.882;20.650;2023-07-31T08:44:06;4.40;;;2.40;;
59978;SDS011;45839;44.882;20.650;2023-07-31T08:46:32;4.20;;;2.30;;
59978;SDS011;45839;44.882;20.650;2023-07-31T08:48:59;5.68;;;2.90;;
59978;SDS011;45839;44.882;20.650;2023-07-31T08:51:26;5.32;;;2.65;;
59978;SDS011;45839;44.882;20.650;2023-07-31T08:53:52;5.35;;;2.65;;
59978;SDS011;45839;44.882;20.650;2023-07-31T08:56:18;6.18;;;2.75;;
59978;SDS011;45839;44.882;20.650;2023-07-31T08:58:45;5.57;;;2.70;;
59978;SDS011;45839;44.882;20.650;2023-07-31T09:01:12;3.92;;;2.40;;
59978;SDS011;45839;44.882;20.650;2023-07-31T09:03:38;5.22;;;2.28;;
59978;SDS011;45839;44.882;20.650;2023-07-31T09:06:05;4.68;;;2.50;;
59978;SDS011;45839;44.882;20.650;2023-07-31T09:08:31;4.55;;;2.53;;
59978;SDS011;45839;44.882;20.650;2023-07-31T09:11:01;5.10;;;2.47;;
59978;SDS011;45839;44.882;20.650;2023-07-31T09:13:29;4.70;;;2.42;;
59978;SDS011;45839;44.882;20.650;2023-07-31T09:15:55;4.15;;;2.22;;
59978;SDS011;45839;44.882;20.650;2023-07-31T09:18:21;5.28;;;2.63;;
59978;SDS011;45839;44.882;20.650;2023-07-31T09:21:00;4.60;;;2.40;;
59978;SDS011;45839;44.882;20.650;2023-07-31T09:23:27;4.53;;;2.15;;
59978;SDS011;45839;44.882;20.650;2023-07-31T09:26:05;3.85;;;2.15;;
59978;SDS011;45839;44.882;20.650;2023-07-31T09:28:31;4.32;;;2.53;;
59978;SDS011;45839;44.882;20.650;2023-07-31T09:30:57;6.50;;;2.15;;
59978;SDS011;45839;44.882;20.650;2023-07-31T09:33:23;4.45;;;2.17;;
59978;SDS011;45839;44.882;20.650;2023-07-31T09:35:49;4.80;;;2.00;;
59978;SDS011;45839;44.882;20.650;2023-07-31T09:38:15;5.90;;;2.20;;
59978;SDS011;45839;44.882;20.650;2023-07-31T09:40:50;3.63;;;1.80;;
59978;SDS011;45839;44.882;20.650;2023-07-31T09:43:17;3.83;;;2.10;;
59978;SDS011;45839;44.882;20.650;2023-07-31T09:45:44;4.03;;;1.92;;
59978;SDS011;45839;44.882;20.650;2023-07-31T09:48:14;3.67;;;1.77;;
59978;SDS011;45839;44.882;20.650;2023-07-31T09:50:44;5.50;;;2.03;;
59978;SDS011;45839;44.882;20.650;2023-07-31T09:53:10;4.45;;;1.95;;
59978;SDS011;45839;44.882;20.650;2023-07-31T09:55:37;3.55;;;1.95;;
59978;SDS011;45839;44.882;20.650;2023-07-31T09:58:08;4.45;;;1.70;;
59978;SDS011;45839;44.882;20.650;2023-07-31T10:00:34;3.65;;;1.75;;
59978;SDS011;45839;44.882;20.650;2023-07-31T10:03:01;3.30;;;1.63;;
59978;SDS011;45839;44.882;20.650;2023-07-31T10:05:30;6.07;;;2.22;;
59978;SDS011;45839;44.882;20.650;2023-07-31T10:07:57;2.65;;;1.50;;
59978;SDS011;45839;44.882;20.650;2023-07-31T10:10:23;4.47;;;1.88;;
59978;SDS011;45839;44.882;20.650;2023-07-31T10:12:51;3.80;;;1.70;;
59978;SDS011;45839;44.882;20.650;2023-07-31T10:15:18;2.95;;;1.65;;
59978;SDS011;45839;44.882;20.650;2023-07-31T10:17:46;3.53;;;1.67;;
59978;SDS011;45839;44.882;20.650;2023-07-31T10:20:12;4.32;;;2.05;;
59978;SDS011;45839;44.882;20.650;2023-07-31T10:22:38;4.60;;;1.90;;
59978;SDS011;45839;44.882;20.650;2023-07-31T10:25:04;4.80;;;2.00;;
59978;SDS011;45839;44.882;20.650;2023-07-31T10:27:34;2.83;;;1.50;;
59978;SDS011;45839;44.882;20.650;2023-07-31T10:30:01;3.33;;;1.38;;
59978;SDS011;45839;44.882;20.650;2023-07-31T10:32:29;3.38;;;1.50;;
59978;SDS011;45839;44.882;20.650;2023-07-31T10:34:55;3.50;;;1.55;;
59978;SDS011;45839;44.882;20.650;2023-07-31T10:39:57;2.55;;;1.23;;
59978;SDS011;45839;44.882;20.650;2023-07-31T10:42:27;2.85;;;1.20;;
59978;SDS011;45839;44.882;20.650;2023-07-31T10:44:57;4.22;;;1.52;;
59978;SDS011;45839;44.882;20.650;2023-07-31T10:47:24;5.13;;;1.80;;
59978;SDS011;45839;44.882;20.650;2023-07-31T10:49:50;3.42;;;1.73;;
59978;SDS011;45839;44.882;20.650;2023-07-31T10:52:20;3.92;;;1.60;;
59978;SDS011;45839;44.882;20.650;2023-07-31T10:55:12;3.40;;;1.20;;
59978;SDS011;45839;44.882;20.650;2023-07-31T10:57:37;4.40;;;1.50;;
59978;SDS011;45839;44.882;20.650;2023-07-31T11:05:40;7.63;;;1.70;;
59978;SDS011;45839;44.882;20.650;2023-07-31T11:10:32;2.28;;;1.20;;
59978;SDS011;45839;44.882;20.650;2023-07-31T11:12:58;3.90;;;1.20;;
59978;SDS011;45839;44.882;20.650;2023-07-31T11:15:26;5.07;;;2.03;;
59978;SDS011;45839;44.882;20.650;2023-07-31T11:17:52;4.68;;;1.40;;
59978;SDS011;45839;44.882;20.650;2023-07-31T11:20:18;3.13;;;1.40;;
59978;SDS011;45839;44.882;20.650;2023-07-31T11:22:44;3.63;;;1.58;;
59978;SDS011;45839;44.882;20.650;2023-07-31T11:25:10;3.33;;;1.33;;
59978;SDS011;45839;44.882;20.650;2023-07-31T11:27:39;4.95;;;1.63;;
59978;SDS011;45839;44.882;20.650;2023-07-31T11:30:06;6.47;;;1.33;;
59978;SDS011;45839;44.882;20.650;2023-07-31T11:32:32;4.03;;;1.58;;
59978;SDS011;45839;44.882;20.650;2023-07-31T11:34:58;3.60;;;1.35;;
59978;SDS011;45839;44.882;20.650;2023-07-31T11:37:24;4.28;;;1.50;;
59978;SDS011;45839;44.882;20.650;2023-07-31T11:40:00;3.10;;;1.38;;
59978;SDS011;45839;44.882;20.650;2023-07-31T11:42:26;3.30;;;1.20;;
59978;SDS011;45839;44.882;20.650;2023-07-31T11:44:52;5.10;;;1.25;;
59978;SDS011;45839;44.882;20.650;2023-07-31T11:47:18;2.53;;;1.30;;
59978;SDS011;45839;44.882;20.650;2023-07-31T11:49:45;4.13;;;1.60;;
59978;SDS011;45839;44.882;20.650;2023-07-31T11:52:11;3.08;;;1.42;;
59978;SDS011;45839;44.882;20.650;2023-07-31T11:54:39;3.80;;;1.35;;
59978;SDS011;45839;44.882;20.650;2023-07-31T11:57:05;5.00;;;1.48;;
59978;SDS011;45839;44.882;20.650;2023-07-31T11:59:31;4.00;;;1.20;;
59978;SDS011;45839;44.882;20.650;2023-07-31T12:01:57;3.72;;;1.40;;
59978;SDS011;45839;44.882;20.650;2023-07-31T12:04:24;3.78;;;1.35;;
59978;SDS011;45839;44.882;20.650;2023-07-31T12:06:52;4.10;;;1.40;;
59978;SDS011;45839;44.882;20.650;2023-07-31T12:09:18;2.28;;;1.20;;
59978;SDS011;45839;44.882;20.650;2023-07-31T12:11:48;5.13;;;1.50;;
59978;SDS011;45839;44.882;20.650;2023-07-31T12:14:24;7.75;;;2.30;;
59978;SDS011;45839;44.882;20.650;2023-07-31T12:16:54;5.88;;;1.60;;
59978;SDS011;45839;44.882;20.650;2023-07-31T12:19:21;4.40;;;2.30;;
59978;SDS011;45839;44.882;20.650;2023-07-31T12:21:47;2.70;;;1.23;;
59978;SDS011;45839;44.882;20.650;2023-07-31T12:24:13;3.78;;;1.13;;
59978;SDS011;45839;44.882;20.650;2023-07-31T12:26:39;3.42;;;1.58;;
59978;SDS011;45839;44.882;20.650;2023-07-31T12:29:07;5.25;;;2.28;;
59978;SDS011;45839;44.882;20.650;2023-07-31T12:31:33;5.00;;;2.38;;
59978;SDS011;45839;44.882;20.650;2023-07-31T12:34:00;3.65;;;1.70;;
59978;SDS011;45839;44.882;20.650;2023-07-31T12:36:27;4.57;;;1.75;;
59978;SDS011;45839;44.882;20.650;2023-07-31T12:38:55;3.72;;;1.83;;
59978;SDS011;45839;44.882;20.650;2023-07-31T12:41:23;4.95;;;2.67;;
59978;SDS011;45839;44.882;20.650;2023-07-31T12:43:49;5.25;;;2.90;;
59978;SDS011;45839;44.882;20.650;2023-07-31T12:46:15;5.13;;;2.40;;
59978;SDS011;45839;44.882;20.650;2023-07-31T12:48:42;4.97;;;2.53;;
59978;SDS011;45839;44.882;20.650;2023-07-31T12:51:08;4.43;;;1.83;;
59978;SDS011;45839;44.882;20.650;2023-07-31T12:53:34;5.85;;;2.38;;
59978;SDS011;45839;44.882;20.650;2023-07-31T12:56:01;6.25;;;2.05;;
59978;SDS011;45839;44.882;20.650;2023-07-31T12:58:27;5.25;;;2.50;;
59978;SDS011;45839;44.882;20.650;2023-07-31T13:00:53;7.18;;;2.70;;
59978;SDS011;45839;44.882;20.650;2023-07-31T13:03:19;5.88;;;2.30;;
59978;SDS011;45839;44.882;20.650;2023-07-31T13:05:45;8.82;;;2.75;;
59978;SDS011;45839;44.882;20.650;2023-07-31T13:08:11;4.43;;;2.15;;
59978;SDS011;45839;44.882;20.650;2023-07-31T13:10:37;6.00;;;2.20;;
59978;SDS011;45839;44.882;20.650;2023-07-31T13:13:03;4.90;;;1.92;;
59978;SDS011;45839;44.882;20.650;2023-07-31T13:15:29;4.15;;;1.90;;
59978;SDS011;45839;44.882;20.650;2023-07-31T13:17:55;2.80;;;1.40;;
59978;SDS011;45839;44.882;20.650;2023-07-31T13:20:21;4.78;;;2.05;;
59978;SDS011;45839;44.882;20.650;2023-07-31T13:22:47;4.78;;;2.30;;
59978;SDS011;45839;44.882;20.650;2023-07-31T13:25:13;4.65;;;2.40;;
59978;SDS011;45839;44.882;20.650;2023-07-31T13:27:39;4.78;;;2.10;;
59978;SDS011;45839;44.882;20.650;2023-07-31T13:30:06;5.63;;;2.28;;
59978;SDS011;45839;44.882;20.650;2023-07-31T13:32:32;4.15;;;1.77;;
59978;SDS011;45839;44.882;20.650;2023-07-31T13:34:58;4.03;;;1.75;;
59978;SDS011;45839;44.882;20.650;2023-07-31T13:37:24;3.92;;;1.70;;
59978;SDS011;45839;44.882;20.650;2023-07-31T13:39:50;4.40;;;1.83;;
59978;SDS011;45839;44.882;20.650;2023-07-31T13:42:16;6.13;;;1.70;;
59978;SDS011;45839;44.882;20.650;2023-07-31T13:44:42;5.05;;;2.00;;
59978;SDS011;45839;44.882;20.650;2023-07-31T13:47:09;4.05;;;1.98;;
59978;SDS011;45839;44.882;20.650;2023-07-31T13:49:35;4.13;;;1.73;;
59978;SDS011;45839;44.882;20.650;2023-07-31T13:52:02;3.58;;;1.30;;
59978;SDS011;45839;44.882;20.650;2023-07-31T13:54:28;2.55;;;1.08;;
59978;SDS011;45839;44.882;20.650;2023-07-31T13:56:54;3.33;;;1.50;;
59978;SDS011;45839;44.882;20.650;2023-07-31T13:59:20;3.65;;;1.58;;
59978;SDS011;45839;44.882;20.650;2023-07-31T14:01:46;4.68;;;1.30;;
59978;SDS011;45839;44.882;20.650;2023-07-31T14:04:13;3.90;;;1.50;;
59978;SDS011;45839;44.882;20.650;2023-07-31T14:06:39;2.70;;;1.20;;
59978;SDS011;45839;44.882;20.650;2023-07-31T14:09:06;3.92;;;1.65;;
59978;SDS011;45839;44.882;20.650;2023-07-31T14:11:32;4.70;;;1.50;;
59978;SDS011;45839;44.882;20.650;2023-07-31T14:13:58;4.03;;;1.40;;
59978;SDS011;45839;44.882;20.650;2023-07-31T14:16:24;3.63;;;1.58;;
59978;SDS011;45839;44.882;20.650;2023-07-31T14:18:50;3.35;;;1.40;;
59978;SDS011;45839;44.882;20.650;2023-07-31T14:21:18;3.53;;;1.25;;
59978;SDS011;45839;44.882;20.650;2023-07-31T14:23:44;5.43;;;1.50;;
59978;SDS011;45839;44.882;20.650;2023-07-31T14:26:10;4.00;;;1.55;;
59978;SDS011;45839;44.882;20.650;2023-07-31T14:28:37;5.30;;;1.80;;
59978;SDS011;45839;44.882;20.650;2023-07-31T14:31:03;5.10;;;2.08;;
59978;SDS011;45839;44.882;20.650;2023-07-31T14:33:29;6.55;;;2.30;;
59978;SDS011;45839;44.882;20.650;2023-07-31T14:35:55;5.28;;;1.90;;
59978;SDS011;45839;44.882;20.650;2023-07-31T14:38:22;5.20;;;1.95;;
59978;SDS011;45839;44.882;20.650;2023-07-31T14:40:48;5.68;;;2.85;;
59978;SDS011;45839;44.882;20.650;2023-07-31T14:43:14;10.93;;;6.93;;
59978;SDS011;45839;44.882;20.650;2023-07-31T14:45:40;8.43;;;4.32;;